Airfield :
LOGIN :

Register | Disclaimer

   EN    FR    IT 

 










Legend :    VFR   Marginal VFR   IFR   Intensive IFR   Very Intensive IFR
Visi :
Ceiling :
>= 8 km
>= 3000ft
5 to 8 km
1000 to 3000 ft
1500m to 5 km
500 to 1000 ft
800 to 1500m
200 to 500 ft
< 800m
< 200 ft
Symbols :   Thunderstorms  Fog  Heavy snow  Heavy precipitations  Wind > 20 kt
SIGMETs :     Misc.  Thunderstorms  Icing  Turbulence  Mountain Waves  Volcanic Ashes






- Airport Elevation : 370 ft


EBBE - Beauvechain AB

CURRENT METAR :
  • 071555Z AUTO 25010KT 9999 FEW060/// 13/M01 Q1017 BLU

EXPIRED METARs :
  • 071525Z 28008KT 9999 FEW060 12/M01 Q1017 BLU BLU
  • 071455Z 26011KT 9999 FEW055 11/M01 Q1017 BLU BLU
  • 071425Z 26009KT 9999 FEW055 12/00 Q1017 BLU BLU
  • 071355Z 25011KT 9999 FEW055 12/00 Q1017 BLU BLU

TAF TAF EBBE
Valid from the 07 at 13:00 until the 07 at 22:00 UTC


071141Z 0713/0722 27010KT 9999 FEW050



MET'MAP, your aeronautical weather chart ! - Copyright ORBIFLY December 2007 - Disclaimer

ORBIFLY MET'MAP TEAM :

Programming & Development : Alexandra Zaïnal
Concept & original design : Baudouin d'Aumeries
Assistance for programming : Marc-Olivier Méhu
Technical & hardware support : Manuel Goepfert

Contact : metmap@orbifly.com




SOURCES & CREDITS :

   NOAA